Aviation Digital Data Service (ADDS)

Output produced by METARs form (0420 UTC 19 February 2019)
found at http://www.aviationweather.gov/metar/data/
 
METAR text: FOOL 190400Z 16004KT 9999 FEW016 27/26 Q1008 NOSIG
Conditions at: FOOL (LIBREVILLE/LEON , GA) observed 0400 UTC 19 February 2019
Temperature: 27.0°C (81°F)
Dewpoint: 26.0°C (79°F) [RH = 94%]
Pressure (altimeter): 29.76 inches Hg (1008.0 mb)
Winds: from the SSE (160 degrees) at 5 MPH (4 knots; 2.1 m/s)
Visibility: 6 or more miles (10+ km)
Ceiling: at least 12,000 feet AGL
Clouds: few clouds at 1600 feet AGL
Weather: no significant weather observed at this time

METAR text: FOOL 190330Z 16004KT 9999 FEW016 27/26 Q1008 NOSIG
Conditions at: FOOL (LIBREVILLE/LEON , GA) observed 0330 UTC 19 February 2019
Temperature: 27.0°C (81°F)
Dewpoint: 26.0°C (79°F) [RH = 94%]
Pressure (altimeter): 29.76 inches Hg (1008.0 mb)
Winds: from the SSE (160 degrees) at 5 MPH (4 knots; 2.1 m/s)
Visibility: 6 or more miles (10+ km)
Ceiling: at least 12,000 feet AGL
Clouds: few clouds at 1600 feet AGL
Weather: no significant weather observed at this time

METAR text: FOOL 190200Z 25004KT 210V300 9999 FEW016 29/26 Q1009 NOSIG
Conditions at: FOOL (LIBREVILLE/LEON , GA) observed 0200 UTC 19 February 2019
Temperature: 29.0°C (84°F)
Dewpoint: 26.0°C (79°F) [RH = 84%]
Pressure (altimeter): 29.79 inches Hg (1009.0 mb)
Winds: from the WSW (250 degrees) at 5 MPH (4 knots; 2.1 m/s)
Visibility: 6 or more miles (10+ km)
Ceiling: at least 12,000 feet AGL
Clouds: few clouds at 1600 feet AGL
Weather: no significant weather observed at this time

METAR text: FOOL 190130Z 25004KT 210V300 9999 FEW016 29/26 Q1009 NOSIG
Conditions at: FOOL (LIBREVILLE/LEON , GA) observed 0130 UTC 19 February 2019
Temperature: 29.0°C (84°F)
Dewpoint: 26.0°C (79°F) [RH = 84%]
Pressure (altimeter): 29.79 inches Hg (1009.0 mb)
Winds: from the WSW (250 degrees) at 5 MPH (4 knots; 2.1 m/s)
Visibility: 6 or more miles (10+ km)
Ceiling: at least 12,000 feet AGL
Clouds: few clouds at 1600 feet AGL
Weather: no significant weather observed at this time

METAR text: FOOL 190100Z 25004KT 210V300 9999 FEW016 29/26 Q1009 NOSIG
Conditions at: FOOL (LIBREVILLE/LEON , GA) observed 0100 UTC 19 February 2019
Temperature: 29.0°C (84°F)
Dewpoint: 26.0°C (79°F) [RH = 84%]
Pressure (altimeter): 29.79 inches Hg (1009.0 mb)
Winds: from the WSW (250 degrees) at 5 MPH (4 knots; 2.1 m/s)
Visibility: 6 or more miles (10+ km)
Ceiling: at least 12,000 feet AGL
Clouds: few clouds at 1600 feet AGL
Weather: no significant weather observed at this time

METAR text: FOOL 190030Z 25004KT 210V300 9999 FEW016 29/26 Q1009 NOSIG
Conditions at: FOOL (LIBREVILLE/LEON , GA) observed 0030 UTC 19 February 2019
Temperature: 29.0°C (84°F)
Dewpoint: 26.0°C (79°F) [RH = 84%]
Pressure (altimeter): 29.79 inches Hg (1009.0 mb)
Winds: from the WSW (250 degrees) at 5 MPH (4 knots; 2.1 m/s)
Visibility: 6 or more miles (10+ km)
Ceiling: at least 12,000 feet AGL
Clouds: few clouds at 1600 feet AGL
Weather: no significant weather observed at this time

METAR text: FOOL 190000Z 25004KT 230V300 9999 FEW016 29/26 Q1010 NOSIG
Conditions at: FOOL (LIBREVILLE/LEON , GA) observed 0000 UTC 19 February 2019
Temperature: 29.0°C (84°F)
Dewpoint: 26.0°C (79°F) [RH = 84%]
Pressure (altimeter): 29.82 inches Hg (1010.0 mb)
Winds: from the WSW (250 degrees) at 5 MPH (4 knots; 2.1 m/s)
Visibility: 6 or more miles (10+ km)
Ceiling: at least 12,000 feet AGL
Clouds: few clouds at 1600 feet AGL
Weather: no significant weather observed at this time

METAR text: FOOL 182330Z 25004KT 230V300 9999 FEW016 29/26 Q1010 NOSIG
Conditions at: FOOL (LIBREVILLE/LEON , GA) observed 2330 UTC 18 February 2019
Temperature: 29.0°C (84°F)
Dewpoint: 26.0°C (79°F) [RH = 84%]
Pressure (altimeter): 29.82 inches Hg (1010.0 mb)
Winds: from the WSW (250 degrees) at 5 MPH (4 knots; 2.1 m/s)
Visibility: 6 or more miles (10+ km)
Ceiling: at least 12,000 feet AGL
Clouds: few clouds at 1600 feet AGL
Weather: no significant weather observed at this time

METAR text: FOOL 182300Z 25004KT 230V300 9999 FEW016 29/26 Q1010 NOSIG
Conditions at: FOOL (LIBREVILLE/LEON , GA) observed 2300 UTC 18 February 2019
Temperature: 29.0°C (84°F)
Dewpoint: 26.0°C (79°F) [RH = 84%]
Pressure (altimeter): 29.82 inches Hg (1010.0 mb)
Winds: from the WSW (250 degrees) at 5 MPH (4 knots; 2.1 m/s)
Visibility: 6 or more miles (10+ km)
Ceiling: at least 12,000 feet AGL
Clouds: few clouds at 1600 feet AGL
Weather: no significant weather observed at this time

METAR text: FOOL 182230Z 25004KT 210V270 9999 FEW016 29/26 Q1010 NOSIG
Conditions at: FOOL (LIBREVILLE/LEON , GA) observed 2230 UTC 18 February 2019
Temperature: 29.0°C (84°F)
Dewpoint: 26.0°C (79°F) [RH = 84%]
Pressure (altimeter): 29.82 inches Hg (1010.0 mb)
Winds: from the WSW (250 degrees) at 5 MPH (4 knots; 2.1 m/s)
Visibility: 6 or more miles (10+ km)
Ceiling: at least 12,000 feet AGL
Clouds: few clouds at 1600 feet AGL
Weather: no significant weather observed at this time

METAR text: FOOL 182200Z 25004KT 210V270 9999 SCT016 29/26 Q1011 NOSIG
Conditions at: FOOL (LIBREVILLE/LEON , GA) observed 2200 UTC 18 February 2019
Temperature: 29.0°C (84°F)
Dewpoint: 26.0°C (79°F) [RH = 84%]
Pressure (altimeter): 29.85 inches Hg (1011.0 mb)
Winds: from the WSW (250 degrees) at 5 MPH (4 knots; 2.1 m/s)
Visibility: 6 or more miles (10+ km)
Ceiling: at least 12,000 feet AGL
Clouds: scattered clouds at 1600 feet AGL
Weather: no significant weather observed at this time

METAR text: FOOL 182130Z 27004KT 240V300 9999 SCT016 29/26 Q1011 NOSIG
Conditions at: FOOL (LIBREVILLE/LEON , GA) observed 2130 UTC 18 February 2019
Temperature: 29.0°C (84°F)
Dewpoint: 26.0°C (79°F) [RH = 84%]
Pressure (altimeter): 29.85 inches Hg (1011.0 mb)
Winds: from the W (270 degrees) at 5 MPH (4 knots; 2.1 m/s)
Visibility: 6 or more miles (10+ km)
Ceiling: at least 12,000 feet AGL
Clouds: scattered clouds at 1600 feet AGL
Weather: no significant weather observed at this time

METAR text: FOOL 182100Z 27004KT 260V320 9999 FEW016 29/26 Q1010 NOSIG
Conditions at: FOOL (LIBREVILLE/LEON , GA) observed 2100 UTC 18 February 2019
Temperature: 29.0°C (84°F)
Dewpoint: 26.0°C (79°F) [RH = 84%]
Pressure (altimeter): 29.82 inches Hg (1010.0 mb)
Winds: from the W (270 degrees) at 5 MPH (4 knots; 2.1 m/s)
Visibility: 6 or more miles (10+ km)
Ceiling: at least 12,000 feet AGL
Clouds: few clouds at 1600 feet AGL
Weather: no significant weather observed at this time

METAR text: FOOL 182030Z 27004KT 260V320 9999 SCT016 29/26 Q1010 NOSIG
Conditions at: FOOL (LIBREVILLE/LEON , GA) observed 2030 UTC 18 February 2019
Temperature: 29.0°C (84°F)
Dewpoint: 26.0°C (79°F) [RH = 84%]
Pressure (altimeter): 29.82 inches Hg (1010.0 mb)
Winds: from the W (270 degrees) at 5 MPH (4 knots; 2.1 m/s)
Visibility: 6 or more miles (10+ km)
Ceiling: at least 12,000 feet AGL
Clouds: scattered clouds at 1600 feet AGL
Weather: no significant weather observed at this time

METAR text: FOOL 182000Z 27004KT 260V320 9999 SCT016 29/26 Q1010 NOSIG
Conditions at: FOOL (LIBREVILLE/LEON , GA) observed 2000 UTC 18 February 2019
Temperature: 29.0°C (84°F)
Dewpoint: 26.0°C (79°F) [RH = 84%]
Pressure (altimeter): 29.82 inches Hg (1010.0 mb)
Winds: from the W (270 degrees) at 5 MPH (4 knots; 2.1 m/s)
Visibility: 6 or more miles (10+ km)
Ceiling: at least 12,000 feet AGL
Clouds: scattered clouds at 1600 feet AGL
Weather: no significant weather observed at this time

METAR text: FOOL 181930Z 27004KT 230V290 9999 FEW013 29/26 Q1009 NOSIG
Conditions at: FOOL (LIBREVILLE/LEON , GA) observed 1930 UTC 18 February 2019
Temperature: 29.0°C (84°F)
Dewpoint: 26.0°C (79°F) [RH = 84%]
Pressure (altimeter): 29.79 inches Hg (1009.0 mb)
Winds: from the W (270 degrees) at 5 MPH (4 knots; 2.1 m/s)
Visibility: 6 or more miles (10+ km)
Ceiling: at least 12,000 feet AGL
Clouds: few clouds at 1300 feet AGL
Weather: no significant weather observed at this time

METAR text: FOOL 181900Z 29004KT 270V340 9999 SCT013 29/26 Q1009 NOSIG
Conditions at: FOOL (LIBREVILLE/LEON , GA) observed 1900 UTC 18 February 2019
Temperature: 29.0°C (84°F)
Dewpoint: 26.0°C (79°F) [RH = 84%]
Pressure (altimeter): 29.79 inches Hg (1009.0 mb)
Winds: from the WNW (290 degrees) at 5 MPH (4 knots; 2.1 m/s)
Visibility: 6 or more miles (10+ km)
Ceiling: at least 12,000 feet AGL
Clouds: scattered clouds at 1300 feet AGL
Weather: no significant weather observed at this time

METAR text: FOOL 181830Z 29005KT 260V330 9999 FEW013 29/25 Q1008 NOSIG
Conditions at: FOOL (LIBREVILLE/LEON , GA) observed 1830 UTC 18 February 2019
Temperature: 29.0°C (84°F)
Dewpoint: 25.0°C (77°F) [RH = 79%]
Pressure (altimeter): 29.76 inches Hg (1008.0 mb)
Winds: from the WNW (290 degrees) at 6 MPH (5 knots; 2.6 m/s)
Visibility: 6 or more miles (10+ km)
Ceiling: at least 12,000 feet AGL
Clouds: few clouds at 1300 feet AGL
Weather: no significant weather observed at this time

METAR text: FOOL 181800Z 29005KT 240V330 9999 FEW013 29/25 Q1007 NOSIG
Conditions at: FOOL (LIBREVILLE/LEON , GA) observed 1800 UTC 18 February 2019
Temperature: 29.0°C (84°F)
Dewpoint: 25.0°C (77°F) [RH = 79%]
Pressure (altimeter): 29.73 inches Hg (1007.0 mb)
Winds: from the WNW (290 degrees) at 6 MPH (5 knots; 2.6 m/s)
Visibility: 6 or more miles (10+ km)
Ceiling: at least 12,000 feet AGL
Clouds: few clouds at 1300 feet AGL
Weather: no significant weather observed at this time

METAR text: FOOL 181730Z 30006KT 240V340 9999 FEW013 FEW020CB 29/26 Q1007 NOSIG
Conditions at: FOOL (LIBREVILLE/LEON , GA) observed 1730 UTC 18 February 2019
Temperature: 29.0°C (84°F)
Dewpoint: 26.0°C (79°F) [RH = 84%]
Pressure (altimeter): 29.73 inches Hg (1007.0 mb)
Winds: from the WNW (300 degrees) at 7 MPH (6 knots; 3.1 m/s)
Visibility: 6 or more miles (10+ km)
Ceiling: at least 12,000 feet AGL
Clouds: few clouds at 1300 feet AGL
few clouds at 2000 feet AGL
Weather: no significant weather observed at this time

METAR text: FOOL 181700Z 30005KT 240V340 9999 FEW013 29/26 Q1007 NOSIG
Conditions at: FOOL (LIBREVILLE/LEON , GA) observed 1700 UTC 18 February 2019
Temperature: 29.0°C (84°F)
Dewpoint: 26.0°C (79°F) [RH = 84%]
Pressure (altimeter): 29.73 inches Hg (1007.0 mb)
Winds: from the WNW (300 degrees) at 6 MPH (5 knots; 2.6 m/s)
Visibility: 6 or more miles (10+ km)
Ceiling: at least 12,000 feet AGL
Clouds: few clouds at 1300 feet AGL
Weather: no significant weather observed at this time

METAR text: FOOL 181630Z 29005KT 250V320 9999 FEW013 29/26 Q1007 NOSIG
Conditions at: FOOL (LIBREVILLE/LEON , GA) observed 1630 UTC 18 February 2019
Temperature: 29.0°C (84°F)
Dewpoint: 26.0°C (79°F) [RH = 84%]
Pressure (altimeter): 29.73 inches Hg (1007.0 mb)
Winds: from the WNW (290 degrees) at 6 MPH (5 knots; 2.6 m/s)
Visibility: 6 or more miles (10+ km)
Ceiling: at least 12,000 feet AGL
Clouds: few clouds at 1300 feet AGL
Weather: no significant weather observed at this time

METAR text: FOOL 181600Z 29006KT 240V320 9999 FEW013 30/26 Q1007 NOSIG
Conditions at: FOOL (LIBREVILLE/LEON , GA) observed 1600 UTC 18 February 2019
Temperature: 30.0°C (86°F)
Dewpoint: 26.0°C (79°F) [RH = 79%]
Pressure (altimeter): 29.73 inches Hg (1007.0 mb)
Winds: from the WNW (290 degrees) at 7 MPH (6 knots; 3.1 m/s)
Visibility: 6 or more miles (10+ km)
Ceiling: at least 12,000 feet AGL
Clouds: few clouds at 1300 feet AGL
Weather: no significant weather observed at this time

METAR text: FOOL 181530Z 29006KT 240V330 9999 FEW013 29/26 Q1007 NOSIG
Conditions at: FOOL (LIBREVILLE/LEON , GA) observed 1530 UTC 18 February 2019
Temperature: 29.0°C (84°F)
Dewpoint: 26.0°C (79°F) [RH = 84%]
Pressure (altimeter): 29.73 inches Hg (1007.0 mb)
Winds: from the WNW (290 degrees) at 7 MPH (6 knots; 3.1 m/s)
Visibility: 6 or more miles (10+ km)
Ceiling: at least 12,000 feet AGL
Clouds: few clouds at 1300 feet AGL
Weather: no significant weather observed at this time

METAR text: FOOL 181500Z 28007KT 250V330 9999 FEW013 29/25 Q1007 NOSIG
Conditions at: FOOL (LIBREVILLE/LEON , GA) observed 1500 UTC 18 February 2019
Temperature: 29.0°C (84°F)
Dewpoint: 25.0°C (77°F) [RH = 79%]
Pressure (altimeter): 29.73 inches Hg (1007.0 mb)
Winds: from the W (280 degrees) at 8 MPH (7 knots; 3.6 m/s)
Visibility: 6 or more miles (10+ km)
Ceiling: at least 12,000 feet AGL
Clouds: few clouds at 1300 feet AGL
Weather: no significant weather observed at this time

METAR text: FOOL 181430Z 29009KT 240V330 9999 SCT013 30/26 Q1007 NOSIG
Conditions at: FOOL (LIBREVILLE/LEON , GA) observed 1430 UTC 18 February 2019
Temperature: 30.0°C (86°F)
Dewpoint: 26.0°C (79°F) [RH = 79%]
Pressure (altimeter): 29.73 inches Hg (1007.0 mb)
Winds: from the WNW (290 degrees) at 10 MPH (9 knots; 4.6 m/s)
Visibility: 6 or more miles (10+ km)
Ceiling: at least 12,000 feet AGL
Clouds: scattered clouds at 1300 feet AGL
Weather: no significant weather observed at this time

METAR text: FOOL 181400Z 29008KT 250V320 9999 SCT013 FEW020CB 31/26 Q1008 NOSIG
Conditions at: FOOL (LIBREVILLE/LEON , GA) observed 1400 UTC 18 February 2019
Temperature: 31.0°C (88°F)
Dewpoint: 26.0°C (79°F) [RH = 75%]
Pressure (altimeter): 29.76 inches Hg (1008.0 mb)
Winds: from the WNW (290 degrees) at 9 MPH (8 knots; 4.1 m/s)
Visibility: 6 or more miles (10+ km)
Ceiling: at least 12,000 feet AGL
Clouds: scattered clouds at 1300 feet AGL
few clouds at 2000 feet AGL
Weather: no significant weather observed at this time

METAR text: FOOL 181330Z 32009KT 290V350 8000 TS SCT012 FEW020CB SCT026 30/25 Q1008 BECMG NSW
Conditions at: FOOL (LIBREVILLE/LEON , GA) observed 1330 UTC 18 February 2019
Temperature: 30.0°C (86°F)
Dewpoint: 25.0°C (77°F) [RH = 75%]
Pressure (altimeter): 29.76 inches Hg (1008.0 mb)
Winds: from the NW (320 degrees) at 10 MPH (9 knots; 4.6 m/s)
Visibility: 5 miles ( 8 km)
Ceiling: at least 12,000 feet AGL
Clouds: scattered clouds at 1200 feet AGL
few clouds at 2000 feet AGL
scattered clouds at 2600 feet AGL
Weather: TS  (thunderstorm)

METAR text: FOOL 181300Z 25008KT 9000 4000N TSRA SCT012 FEW020CB BKN026 30/26 Q1009 TEMPO 1500 +TSRA
Conditions at: FOOL (LIBREVILLE/LEON , GA) observed 1300 UTC 18 February 2019
Temperature: 30.0°C (86°F)
Dewpoint: 26.0°C (79°F) [RH = 79%]
Pressure (altimeter): 29.79 inches Hg (1009.0 mb)
Winds: from the WSW (250 degrees) at 9 MPH (8 knots; 4.1 m/s)
Visibility: 6 miles ( 9 km)
Ceiling: 2600 feet AGL
Clouds: scattered clouds at 1200 feet AGL
few clouds at 2000 feet AGL
broken clouds at 2600 feet AGL
Weather: TSRA  (rain associated with thunderstorm(s))

METAR text: FOOL 181230Z 23006KT 190V260 9999 SCT014 FEW020CB 31/26 Q1009 TEMPO 3000 TSRA
Conditions at: FOOL (LIBREVILLE/LEON , GA) observed 1230 UTC 18 February 2019
Temperature: 31.0°C (88°F)
Dewpoint: 26.0°C (79°F) [RH = 75%]
Pressure (altimeter): 29.79 inches Hg (1009.0 mb)
Winds: from the SW (230 degrees) at 7 MPH (6 knots; 3.1 m/s)
Visibility: 6 or more miles (10+ km)
Ceiling: at least 12,000 feet AGL
Clouds: scattered clouds at 1400 feet AGL
few clouds at 2000 feet AGL
Weather: no significant weather observed at this time

METAR text: FOOL 181200Z 24006KT 210V280 9999 SCT014 31/26 Q1010 NOSIG
Conditions at: FOOL (LIBREVILLE/LEON , GA) observed 1200 UTC 18 February 2019
Temperature: 31.0°C (88°F)
Dewpoint: 26.0°C (79°F) [RH = 75%]
Pressure (altimeter): 29.82 inches Hg (1010.0 mb)
Winds: from the WSW (240 degrees) at 7 MPH (6 knots; 3.1 m/s)
Visibility: 6 or more miles (10+ km)
Ceiling: at least 12,000 feet AGL
Clouds: scattered clouds at 1400 feet AGL
Weather: no significant weather observed at this time

METAR text: FOOL 181130Z 20006KT 180V250 9999 SCT013 31/26 Q1011 NOSIG
Conditions at: FOOL (LIBREVILLE/LEON , GA) observed 1130 UTC 18 February 2019
Temperature: 31.0°C (88°F)
Dewpoint: 26.0°C (79°F) [RH = 75%]
Pressure (altimeter): 29.85 inches Hg (1011.0 mb)
Winds: from the SSW (200 degrees) at 7 MPH (6 knots; 3.1 m/s)
Visibility: 6 or more miles (10+ km)
Ceiling: at least 12,000 feet AGL
Clouds: scattered clouds at 1300 feet AGL
Weather: no significant weather observed at this time

METAR text: FOOL 181100Z 20006KT 180V250 9999 SCT013 31/26 Q1011 NOSIG
Conditions at: FOOL (LIBREVILLE/LEON , GA) observed 1100 UTC 18 February 2019
Temperature: 31.0°C (88°F)
Dewpoint: 26.0°C (79°F) [RH = 75%]
Pressure (altimeter): 29.85 inches Hg (1011.0 mb)
Winds: from the SSW (200 degrees) at 7 MPH (6 knots; 3.1 m/s)
Visibility: 6 or more miles (10+ km)
Ceiling: at least 12,000 feet AGL
Clouds: scattered clouds at 1300 feet AGL
Weather: no significant weather observed at this time

METAR text: FOOL 181030Z 20006KT 130V240 9999 SCT013 31/26 Q1012 NOSIG
Conditions at: FOOL (LIBREVILLE/LEON , GA) observed 1030 UTC 18 February 2019
Temperature: 31.0°C (88°F)
Dewpoint: 26.0°C (79°F) [RH = 75%]
Pressure (altimeter): 29.88 inches Hg (1012.0 mb)
Winds: from the SSW (200 degrees) at 7 MPH (6 knots; 3.1 m/s)
Visibility: 6 or more miles (10+ km)
Ceiling: at least 12,000 feet AGL
Clouds: scattered clouds at 1300 feet AGL
Weather: no significant weather observed at this time

METAR text: FOOL 181000Z 19005KT 150V220 9000 SCT013 30/26 Q1012 NOSIG
Conditions at: FOOL (LIBREVILLE/LEON , GA) observed 1000 UTC 18 February 2019
Temperature: 30.0°C (86°F)
Dewpoint: 26.0°C (79°F) [RH = 79%]
Pressure (altimeter): 29.88 inches Hg (1012.0 mb)
Winds: from the S (190 degrees) at 6 MPH (5 knots; 2.6 m/s)
Visibility: 6 miles ( 9 km)
Ceiling: at least 12,000 feet AGL
Clouds: scattered clouds at 1300 feet AGL
Weather: no significant weather observed at this time

METAR text: FOOL 180930Z 19005KT 150V220 9000 SCT013 29/25 Q1012 NOSIG
Conditions at: FOOL (LIBREVILLE/LEON , GA) observed 0930 UTC 18 February 2019
Temperature: 29.0°C (84°F)
Dewpoint: 25.0°C (77°F) [RH = 79%]
Pressure (altimeter): 29.88 inches Hg (1012.0 mb)
Winds: from the S (190 degrees) at 6 MPH (5 knots; 2.6 m/s)
Visibility: 6 miles ( 9 km)
Ceiling: at least 12,000 feet AGL
Clouds: scattered clouds at 1300 feet AGL
Weather: no significant weather observed at this time

METAR text: FOOL 180900Z 19005KT 140V200 9000 SCT013 29/25 Q1012 NOSIG
Conditions at: FOOL (LIBREVILLE/LEON , GA) observed 0900 UTC 18 February 2019
Temperature: 29.0°C (84°F)
Dewpoint: 25.0°C (77°F) [RH = 79%]
Pressure (altimeter): 29.88 inches Hg (1012.0 mb)
Winds: from the S (190 degrees) at 6 MPH (5 knots; 2.6 m/s)
Visibility: 6 miles ( 9 km)
Ceiling: at least 12,000 feet AGL
Clouds: scattered clouds at 1300 feet AGL
Weather: no significant weather observed at this time

METAR text: FOOL 180830Z 15004KT 100V180 9000 FEW013 30/26 Q1012 NOSIG
Conditions at: FOOL (LIBREVILLE/LEON , GA) observed 0830 UTC 18 February 2019
Temperature: 30.0°C (86°F)
Dewpoint: 26.0°C (79°F) [RH = 79%]
Pressure (altimeter): 29.88 inches Hg (1012.0 mb)
Winds: from the SSE (150 degrees) at 5 MPH (4 knots; 2.1 m/s)
Visibility: 6 miles ( 9 km)
Ceiling: at least 12,000 feet AGL
Clouds: few clouds at 1300 feet AGL
Weather: no significant weather observed at this time

METAR text: FOOL 180800Z 11004KT 050V120 9000 FEW013 29/26 Q1012 NOSIG
Conditions at: FOOL (LIBREVILLE/LEON , GA) observed 0800 UTC 18 February 2019
Temperature: 29.0°C (84°F)
Dewpoint: 26.0°C (79°F) [RH = 84%]
Pressure (altimeter): 29.88 inches Hg (1012.0 mb)
Winds: from the ESE (110 degrees) at 5 MPH (4 knots; 2.1 m/s)
Visibility: 6 miles ( 9 km)
Ceiling: at least 12,000 feet AGL
Clouds: few clouds at 1300 feet AGL
Weather: no significant weather observed at this time

METAR text: FOOL 180730Z 10005KT 070V150 9000 FEW012 27/26 Q1012 NOSIG
Conditions at: FOOL (LIBREVILLE/LEON , GA) observed 0730 UTC 18 February 2019
Temperature: 27.0°C (81°F)
Dewpoint: 26.0°C (79°F) [RH = 94%]
Pressure (altimeter): 29.88 inches Hg (1012.0 mb)
Winds: from the E (100 degrees) at 6 MPH (5 knots; 2.6 m/s)
Visibility: 6 miles ( 9 km)
Ceiling: at least 12,000 feet AGL
Clouds: few clouds at 1200 feet AGL
Weather: no significant weather observed at this time

METAR text: FOOL 180700Z 09004KT 070V150 9000 FEW012 26/25 Q1012 NOSIG
Conditions at: FOOL (LIBREVILLE/LEON , GA) observed 0700 UTC 18 February 2019
Temperature: 26.0°C (79°F)
Dewpoint: 25.0°C (77°F) [RH = 94%]
Pressure (altimeter): 29.88 inches Hg (1012.0 mb)
Winds: from the E (90 degrees) at 5 MPH (4 knots; 2.1 m/s)
Visibility: 6 miles ( 9 km)
Ceiling: at least 12,000 feet AGL
Clouds: few clouds at 1200 feet AGL
Weather: no significant weather observed at this time

METAR text: FOOL 180630Z 07003KT 9000 FEW012 26/25 Q1011 NOSIG
Conditions at: FOOL (LIBREVILLE/LEON , GA) observed 0630 UTC 18 February 2019
Temperature: 26.0°C (79°F)
Dewpoint: 25.0°C (77°F) [RH = 94%]
Pressure (altimeter): 29.85 inches Hg (1011.0 mb)
Winds: from the ENE (70 degrees) at 3 MPH (3 knots; 1.5 m/s)
Visibility: 6 miles ( 9 km)
Ceiling: at least 12,000 feet AGL
Clouds: few clouds at 1200 feet AGL
Weather: no significant weather observed at this time

METAR text: FOOL 180600Z 06004KT 8000 FEW012 26/25 Q1011 NOSIG
Conditions at: FOOL (LIBREVILLE/LEON , GA) observed 0600 UTC 18 February 2019
Temperature: 26.0°C (79°F)
Dewpoint: 25.0°C (77°F) [RH = 94%]
Pressure (altimeter): 29.85 inches Hg (1011.0 mb)
Winds: from the ENE (60 degrees) at 5 MPH (4 knots; 2.1 m/s)
Visibility: 5 miles ( 8 km)
Ceiling: at least 12,000 feet AGL
Clouds: few clouds at 1200 feet AGL
Weather: no significant weather observed at this time

METAR text: FOOL 180530Z 05004KT 8000 FEW012 26/25 Q1011 NOSIG
Conditions at: FOOL (LIBREVILLE/LEON , GA) observed 0530 UTC 18 February 2019
Temperature: 26.0°C (79°F)
Dewpoint: 25.0°C (77°F) [RH = 94%]
Pressure (altimeter): 29.85 inches Hg (1011.0 mb)
Winds: from the NE (50 degrees) at 5 MPH (4 knots; 2.1 m/s)
Visibility: 5 miles ( 8 km)
Ceiling: at least 12,000 feet AGL
Clouds: few clouds at 1200 feet AGL
Weather: no significant weather observed at this time

METAR text: FOOL 180500Z 05004KT 050V110 9999 FEW012 26/25 Q1011 NOSIG
Conditions at: FOOL (LIBREVILLE/LEON , GA) observed 0500 UTC 18 February 2019
Temperature: 26.0°C (79°F)
Dewpoint: 25.0°C (77°F) [RH = 94%]
Pressure (altimeter): 29.85 inches Hg (1011.0 mb)
Winds: from the NE (50 degrees) at 5 MPH (4 knots; 2.1 m/s)
Visibility: 6 or more miles (10+ km)
Ceiling: at least 12,000 feet AGL
Clouds: few clouds at 1200 feet AGL
Weather: no significant weather observed at this time

METAR text: FOOL 180430Z 11003KT 9999 SCT012 26/25 Q1010 NOSIG
Conditions at: FOOL (LIBREVILLE/LEON , GA) observed 0430 UTC 18 February 2019
Temperature: 26.0°C (79°F)
Dewpoint: 25.0°C (77°F) [RH = 94%]
Pressure (altimeter): 29.82 inches Hg (1010.0 mb)
Winds: from the ESE (110 degrees) at 3 MPH (3 knots; 1.5 m/s)
Visibility: 6 or more miles (10+ km)
Ceiling: at least 12,000 feet AGL
Clouds: scattered clouds at 1200 feet AGL
Weather: no significant weather observed at this time

METAR text: FOOL 180400Z 10004KT 9999 SCT012 26/25 Q1010 NOSIG
Conditions at: FOOL (LIBREVILLE/LEON , GA) observed 0400 UTC 18 February 2019
Temperature: 26.0°C (79°F)
Dewpoint: 25.0°C (77°F) [RH = 94%]
Pressure (altimeter): 29.82 inches Hg (1010.0 mb)
Winds: from the E (100 degrees) at 5 MPH (4 knots; 2.1 m/s)
Visibility: 6 or more miles (10+ km)
Ceiling: at least 12,000 feet AGL
Clouds: scattered clouds at 1200 feet AGL
Weather: no significant weather observed at this time

METAR text: FOOL 180330Z 13003KT 100V190 9999 SCT012 26/25 Q1010 NOSIG
Conditions at: FOOL (LIBREVILLE/LEON , GA) observed 0330 UTC 18 February 2019
Temperature: 26.0°C (79°F)
Dewpoint: 25.0°C (77°F) [RH = 94%]
Pressure (altimeter): 29.82 inches Hg (1010.0 mb)
Winds: from the SE (130 degrees) at 3 MPH (3 knots; 1.5 m/s)
Visibility: 6 or more miles (10+ km)
Ceiling: at least 12,000 feet AGL
Clouds: scattered clouds at 1200 feet AGL
Weather: no significant weather observed at this time

METAR text: FOOL 180300Z 11003KT 9999 FEW012 26/25 Q1010 NOSIG
Conditions at: FOOL (LIBREVILLE/LEON , GA) observed 0300 UTC 18 February 2019
Temperature: 26.0°C (79°F)
Dewpoint: 25.0°C (77°F) [RH = 94%]
Pressure (altimeter): 29.82 inches Hg (1010.0 mb)
Winds: from the ESE (110 degrees) at 3 MPH (3 knots; 1.5 m/s)
Visibility: 6 or more miles (10+ km)
Ceiling: at least 12,000 feet AGL
Clouds: few clouds at 1200 feet AGL
Weather: no significant weather observed at this time

METAR text: FOOL 180230Z 11003KT 9999 FEW013 26/25 Q1010 NOSIG
Conditions at: FOOL (LIBREVILLE/LEON , GA) observed 0230 UTC 18 February 2019
Temperature: 26.0°C (79°F)
Dewpoint: 25.0°C (77°F) [RH = 94%]
Pressure (altimeter): 29.82 inches Hg (1010.0 mb)
Winds: from the ESE (110 degrees) at 3 MPH (3 knots; 1.5 m/s)
Visibility: 6 or more miles (10+ km)
Ceiling: at least 12,000 feet AGL
Clouds: few clouds at 1300 feet AGL
Weather: no significant weather observed at this time

METAR text: FOOL 180200Z VRB02KT 9999 FEW013 26/25 Q1010 NOSIG
Conditions at: FOOL (LIBREVILLE/LEON , GA) observed 0200 UTC 18 February 2019
Temperature: 26.0°C (79°F)
Dewpoint: 25.0°C (77°F) [RH = 94%]
Pressure (altimeter): 29.82 inches Hg (1010.0 mb)
Winds: variable direction winds at 2 MPH (2 knots; 1.0 m/s)
Visibility: 6 or more miles (10+ km)
Ceiling: at least 12,000 feet AGL
Clouds: few clouds at 1300 feet AGL
Weather: no significant weather observed at this time

METAR text: FOOL 180130Z VRB02KT 9999 FEW013 26/25 Q1010 NOSIG
Conditions at: FOOL (LIBREVILLE/LEON , GA) observed 0130 UTC 18 February 2019
Temperature: 26.0°C (79°F)
Dewpoint: 25.0°C (77°F) [RH = 94%]
Pressure (altimeter): 29.82 inches Hg (1010.0 mb)
Winds: variable direction winds at 2 MPH (2 knots; 1.0 m/s)
Visibility: 6 or more miles (10+ km)
Ceiling: at least 12,000 feet AGL
Clouds: few clouds at 1300 feet AGL
Weather: no significant weather observed at this time

METAR text: FOOL 180100Z VRB02KT 9999 FEW013 27/25 Q1011 NOSIG
Conditions at: FOOL (LIBREVILLE/LEON , GA) observed 0100 UTC 18 February 2019
Temperature: 27.0°C (81°F)
Dewpoint: 25.0°C (77°F) [RH = 89%]
Pressure (altimeter): 29.85 inches Hg (1011.0 mb)
Winds: variable direction winds at 2 MPH (2 knots; 1.0 m/s)
Visibility: 6 or more miles (10+ km)
Ceiling: at least 12,000 feet AGL
Clouds: few clouds at 1300 feet AGL
Weather: no significant weather observed at this time

METAR text: FOOL 180030Z VRB02KT 9999 SCT013 27/25 Q1011 NOSIG
Conditions at: FOOL (LIBREVILLE/LEON , GA) observed 0030 UTC 18 February 2019
Temperature: 27.0°C (81°F)
Dewpoint: 25.0°C (77°F) [RH = 89%]
Pressure (altimeter): 29.85 inches Hg (1011.0 mb)
Winds: variable direction winds at 2 MPH (2 knots; 1.0 m/s)
Visibility: 6 or more miles (10+ km)
Ceiling: at least 12,000 feet AGL
Clouds: scattered clouds at 1300 feet AGL
Weather: no significant weather observed at this time

METAR text: FOOL 180000Z 14004KT 9999 SCT013 28/25 Q1011 NOSIG
Conditions at: FOOL (LIBREVILLE/LEON , GA) observed 0000 UTC 18 February 2019
Temperature: 28.0°C (82°F)
Dewpoint: 25.0°C (77°F) [RH = 84%]
Pressure (altimeter): 29.85 inches Hg (1011.0 mb)
Winds: from the SE (140 degrees) at 5 MPH (4 knots; 2.1 m/s)
Visibility: 6 or more miles (10+ km)
Ceiling: at least 12,000 feet AGL
Clouds: scattered clouds at 1300 feet AGL
Weather: no significant weather observed at this time

METAR text: FOOL 172330Z 18003KT 9999 SCT013 SCT020 28/25 Q1012 NOSIG
Conditions at: FOOL (LIBREVILLE/LEON , GA) observed 2330 UTC 17 February 2019
Temperature: 28.0°C (82°F)
Dewpoint: 25.0°C (77°F) [RH = 84%]
Pressure (altimeter): 29.88 inches Hg (1012.0 mb)
Winds: from the S (180 degrees) at 3 MPH (3 knots; 1.5 m/s)
Visibility: 6 or more miles (10+ km)
Ceiling: at least 12,000 feet AGL
Clouds: scattered clouds at 1300 feet AGL
scattered clouds at 2000 feet AGL
Weather: no significant weather observed at this time

METAR text: FOOL 172300Z 20005KT 9999 SCT013 SCT020 28/25 Q1012 NOSIG
Conditions at: FOOL (LIBREVILLE/LEON , GA) observed 2300 UTC 17 February 2019
Temperature: 28.0°C (82°F)
Dewpoint: 25.0°C (77°F) [RH = 84%]
Pressure (altimeter): 29.88 inches Hg (1012.0 mb)
Winds: from the SSW (200 degrees) at 6 MPH (5 knots; 2.6 m/s)
Visibility: 6 or more miles (10+ km)
Ceiling: at least 12,000 feet AGL
Clouds: scattered clouds at 1300 feet AGL
scattered clouds at 2000 feet AGL
Weather: no significant weather observed at this time

METAR text: FOOL 172230Z 20005KT 9999 SCT013 SCT020 28/25 Q1012 NOSIG
Conditions at: FOOL (LIBREVILLE/LEON , GA) observed 2230 UTC 17 February 2019
Temperature: 28.0°C (82°F)
Dewpoint: 25.0°C (77°F) [RH = 84%]
Pressure (altimeter): 29.88 inches Hg (1012.0 mb)
Winds: from the SSW (200 degrees) at 6 MPH (5 knots; 2.6 m/s)
Visibility: 6 or more miles (10+ km)
Ceiling: at least 12,000 feet AGL
Clouds: scattered clouds at 1300 feet AGL
scattered clouds at 2000 feet AGL
Weather: no significant weather observed at this time

METAR text: FOOL 172200Z 21005KT 9999 SCT013 SCT020 28/25 Q1012 NOSIG
Conditions at: FOOL (LIBREVILLE/LEON , GA) observed 2200 UTC 17 February 2019
Temperature: 28.0°C (82°F)
Dewpoint: 25.0°C (77°F) [RH = 84%]
Pressure (altimeter): 29.88 inches Hg (1012.0 mb)
Winds: from the SSW (210 degrees) at 6 MPH (5 knots; 2.6 m/s)
Visibility: 6 or more miles (10+ km)
Ceiling: at least 12,000 feet AGL
Clouds: scattered clouds at 1300 feet AGL
scattered clouds at 2000 feet AGL
Weather: no significant weather observed at this time

METAR text: FOOL 172130Z 21005KT 9999 SCT013 SCT020 28/25 Q1012 NOSIG
Conditions at: FOOL (LIBREVILLE/LEON , GA) observed 2130 UTC 17 February 2019
Temperature: 28.0°C (82°F)
Dewpoint: 25.0°C (77°F) [RH = 84%]
Pressure (altimeter): 29.88 inches Hg (1012.0 mb)
Winds: from the SSW (210 degrees) at 6 MPH (5 knots; 2.6 m/s)
Visibility: 6 or more miles (10+ km)
Ceiling: at least 12,000 feet AGL
Clouds: scattered clouds at 1300 feet AGL
scattered clouds at 2000 feet AGL
Weather: no significant weather observed at this time

METAR text: FOOL 172100Z 23005KT 200V260 9999 SCT013 28/25 Q1012 NOSIG
Conditions at: FOOL (LIBREVILLE/LEON , GA) observed 2100 UTC 17 February 2019
Temperature: 28.0°C (82°F)
Dewpoint: 25.0°C (77°F) [RH = 84%]
Pressure (altimeter): 29.88 inches Hg (1012.0 mb)
Winds: from the SW (230 degrees) at 6 MPH (5 knots; 2.6 m/s)
Visibility: 6 or more miles (10+ km)
Ceiling: at least 12,000 feet AGL
Clouds: scattered clouds at 1300 feet AGL
Weather: no significant weather observed at this time

METAR text: FOOL 172030Z 24005KT 200V280 9999 SCT013 28/24 Q1012 NOSIG
Conditions at: FOOL (LIBREVILLE/LEON , GA) observed 2030 UTC 17 February 2019
Temperature: 28.0°C (82°F)
Dewpoint: 24.0°C (75°F) [RH = 79%]
Pressure (altimeter): 29.88 inches Hg (1012.0 mb)
Winds: from the WSW (240 degrees) at 6 MPH (5 knots; 2.6 m/s)
Visibility: 6 or more miles (10+ km)
Ceiling: at least 12,000 feet AGL
Clouds: scattered clouds at 1300 feet AGL
Weather: no significant weather observed at this time

METAR text: FOOL 172000Z 24005KT 210V280 9999 FEW013 28/25 Q1011 NOSIG
Conditions at: FOOL (LIBREVILLE/LEON , GA) observed 2000 UTC 17 February 2019
Temperature: 28.0°C (82°F)
Dewpoint: 25.0°C (77°F) [RH = 84%]
Pressure (altimeter): 29.85 inches Hg (1011.0 mb)
Winds: from the WSW (240 degrees) at 6 MPH (5 knots; 2.6 m/s)
Visibility: 6 or more miles (10+ km)
Ceiling: at least 12,000 feet AGL
Clouds: few clouds at 1300 feet AGL
Weather: no significant weather observed at this time

METAR text: FOOL 171930Z 26005KT 230V300 9999 FEW013 28/24 Q1011 NOSIG
Conditions at: FOOL (LIBREVILLE/LEON , GA) observed 1930 UTC 17 February 2019
Temperature: 28.0°C (82°F)
Dewpoint: 24.0°C (75°F) [RH = 79%]
Pressure (altimeter): 29.85 inches Hg (1011.0 mb)
Winds: from the W (260 degrees) at 6 MPH (5 knots; 2.6 m/s)
Visibility: 6 or more miles (10+ km)
Ceiling: at least 12,000 feet AGL
Clouds: few clouds at 1300 feet AGL
Weather: no significant weather observed at this time

METAR text: FOOL 171900Z 26005KT 220V290 9999 FEW013 28/24 Q1010 NOSIG
Conditions at: FOOL (LIBREVILLE/LEON , GA) observed 1900 UTC 17 February 2019
Temperature: 28.0°C (82°F)
Dewpoint: 24.0°C (75°F) [RH = 79%]
Pressure (altimeter): 29.82 inches Hg (1010.0 mb)
Winds: from the W (260 degrees) at 6 MPH (5 knots; 2.6 m/s)
Visibility: 6 or more miles (10+ km)
Ceiling: at least 12,000 feet AGL
Clouds: few clouds at 1300 feet AGL
Weather: no significant weather observed at this time

METAR text: FOOL 171830Z 28003KT 9999 FEW015 28/24 Q1010 NOSIG
Conditions at: FOOL (LIBREVILLE/LEON , GA) observed 1830 UTC 17 February 2019
Temperature: 28.0°C (82°F)
Dewpoint: 24.0°C (75°F) [RH = 79%]
Pressure (altimeter): 29.82 inches Hg (1010.0 mb)
Winds: from the W (280 degrees) at 3 MPH (3 knots; 1.5 m/s)
Visibility: 6 or more miles (10+ km)
Ceiling: at least 12,000 feet AGL
Clouds: few clouds at 1500 feet AGL
Weather: no significant weather observed at this time

METAR text: FOOL 171800Z 28003KT 9999 FEW015 28/24 Q1010 NOSIG
Conditions at: FOOL (LIBREVILLE/LEON , GA) observed 1800 UTC 17 February 2019
Temperature: 28.0°C (82°F)
Dewpoint: 24.0°C (75°F) [RH = 79%]
Pressure (altimeter): 29.82 inches Hg (1010.0 mb)
Winds: from the W (280 degrees) at 3 MPH (3 knots; 1.5 m/s)
Visibility: 6 or more miles (10+ km)
Ceiling: at least 12,000 feet AGL
Clouds: few clouds at 1500 feet AGL
Weather: no significant weather observed at this time

METAR text: FOOL 171730Z 28003KT 9999 FEW015 28/24 Q1009 NOSIG
Conditions at: FOOL (LIBREVILLE/LEON , GA) observed 1730 UTC 17 February 2019
Temperature: 28.0°C (82°F)
Dewpoint: 24.0°C (75°F) [RH = 79%]
Pressure (altimeter): 29.79 inches Hg (1009.0 mb)
Winds: from the W (280 degrees) at 3 MPH (3 knots; 1.5 m/s)
Visibility: 6 or more miles (10+ km)
Ceiling: at least 12,000 feet AGL
Clouds: few clouds at 1500 feet AGL
Weather: no significant weather observed at this time

METAR text: FOOL 171700Z 28003KT 9999 FEW015 28/24 Q1009 NOSIG
Conditions at: FOOL (LIBREVILLE/LEON , GA) observed 1700 UTC 17 February 2019
Temperature: 28.0°C (82°F)
Dewpoint: 24.0°C (75°F) [RH = 79%]
Pressure (altimeter): 29.79 inches Hg (1009.0 mb)
Winds: from the W (280 degrees) at 3 MPH (3 knots; 1.5 m/s)
Visibility: 6 or more miles (10+ km)
Ceiling: at least 12,000 feet AGL
Clouds: few clouds at 1500 feet AGL
Weather: no significant weather observed at this time

METAR text: FOOL 171630Z 29004KT 9999 FEW015 29/23 Q1009 NOSIG
Conditions at: FOOL (LIBREVILLE/LEON , GA) observed 1630 UTC 17 February 2019
Temperature: 29.0°C (84°F)
Dewpoint: 23.0°C (73°F) [RH = 70%]
Pressure (altimeter): 29.79 inches Hg (1009.0 mb)
Winds: from the WNW (290 degrees) at 5 MPH (4 knots; 2.1 m/s)
Visibility: 6 or more miles (10+ km)
Ceiling: at least 12,000 feet AGL
Clouds: few clouds at 1500 feet AGL
Weather: no significant weather observed at this time

Forecast for: FOOL (LIBREVILLE/LEON , GA)
Text: TAF FOOL 182300Z 1900/2006 22007KT 9999 SCT011 FEW020CB BKN033
Forecast period: 0000 UTC 19 February 2019 to 0600 UTC 20 February 2019
Forecast type: FROM: standard forecast or significant change
Winds: from the SW (220 degrees) at 8 MPH (7 knots; 3.6 m/s)
Visibility: 6 or more miles 10+ km)
Ceiling: 3300 feet AGL
Clouds: scattered clouds at 1100 feet AGL
few clouds at 2000 feet AGL
broken clouds at 3300 feet AGL
Weather: no significant weather forecast for this period
Text: PROB30
Forecast period: 0300 to 0700 UTC 19 February 2019
Forecast type: TEMPORARY: The following changes expected for less than half the time period
Visibility: 3 miles (5 km)
Ceiling: unknown
Clouds: missing
Weather: TSRA  (rain associated with thunderstorm(s))
Text: TEMPO 1903/1907 5000 TSRA
Forecast period: 2200 UTC 19 February 2019 to 0600 UTC 20 February 2019
Forecast type: TEMPORARY: The following changes expected for less than half the time period
Visibility: missing
Ceiling: unknown
Clouds: missing
Weather: TS  (thunderstorm)